EDLP

Paderborn Lippstadt Airport

Paderborn, Germany
METAR EDLP 181320Z 26007KT 220V300 CAVOK 02/M04 Q1019
Observed Flight Rules
Jan-18 @ 13:20 UTC (28 minutes ago) Visual Flight Rules
Wind Visibility Clouds
260° at 7 knots 10,000+ meters
  • Clear skies
Temperatures Readings
Current 2°C / 36°F
Dewpoint -4°C / 25°F
Humidity 65%
Altimeter 30.09" Hg
Pressure 1018.92 hPa
Elevation 213
METAR EDLP 181320Z 26007KT 220V300 CAVOK 02/M04 Q1019
Observed Flight Rules
Jan-18 @ 13:20 UTC
(28 minutes ago)
VFR
Wind Visibility
260° at 7 knots 10,000+ meters
Clouds
  • Clear skies
Temperature Dewpoint
2°C / 36°F -4°C / 25°F
Humidity Altimeter Pressure
65% 30.09" Hg 1018.92 hPa